createdAt,value
2023-03-27T00:01:16.647Z,4.23
2023-03-27T00:03:43.423Z,4.23
2023-03-27T00:06:16.240Z,4.20
2023-03-27T00:08:51.101Z,4.19
2023-03-27T00:11:19.422Z,4.16
2023-03-27T00:13:49.495Z,4.12
2023-03-27T00:16:18.015Z,4.06
2023-03-27T00:18:45.841Z,4.04
2023-03-27T00:21:12.812Z,4.05
2023-03-27T00:23:39.360Z,4.05
2023-03-27T00:26:06.306Z,4.05
2023-03-27T00:28:32.864Z,4.04
2023-03-27T00:31:00.136Z,4.03
2023-03-27T00:33:27.169Z,4.03
2023-03-27T00:35:54.224Z,4.01
2023-03-27T00:38:21.451Z,3.99
2023-03-27T00:40:50.558Z,3.97
2023-03-27T00:43:28.252Z,3.96
2023-03-27T00:46:01.403Z,3.97
2023-03-27T00:48:30.845Z,3.96
2023-03-27T00:50:58.816Z,3.94
2023-03-27T00:53:28.281Z,3.94
2023-03-27T00:55:59.006Z,3.96
2023-03-27T00:58:42.074Z,3.94
2023-03-27T01:01:59.033Z,3.93
2023-03-27T01:04:26.248Z,3.84
2023-03-27T01:06:56.004Z,3.76
2023-03-27T01:09:22.585Z,3.69
2023-03-27T01:12:01.506Z,3.64
2023-03-27T01:14:34.113Z,3.60
2023-03-27T01:17:38.403Z,3.61
2023-03-27T01:20:14.348Z,3.59
2023-03-27T01:23:04.168Z,3.58
2023-03-27T01:25:55.843Z,3.60
2023-03-27T01:28:29.004Z,3.60
2023-03-27T01:31:21.614Z,3.62
2023-03-27T01:34:06.549Z,3.64
2023-03-27T01:37:06.491Z,3.64
2023-03-27T01:39:44.844Z,3.63
2023-03-27T01:45:36.291Z,3.61
2023-03-27T01:48:40.008Z,3.61
2023-03-27T01:51:16.985Z,3.58
2023-03-27T01:53:52.191Z,3.57
2023-03-27T01:56:26.831Z,3.57
2023-03-27T01:58:57.179Z,3.55
2023-03-27T02:01:31.362Z,3.54
2023-03-27T02:04:02.265Z,3.55
2023-03-27T02:06:34.082Z,3.54
2023-03-27T02:09:09.101Z,3.53
2023-03-27T02:11:58.676Z,3.51
2023-03-27T02:14:32.932Z,3.52
2023-03-27T02:17:10.116Z,3.49
2023-03-27T02:19:47.630Z,3.46
2023-03-27T02:22:14.853Z,3.41
2023-03-27T02:24:43.387Z,3.39
2023-03-27T02:27:36.159Z,3.32
2023-03-27T02:30:13.545Z,3.24
2023-03-27T02:32:53.902Z,3.21
2023-03-27T02:35:41.371Z,3.15
2023-03-27T02:38:20.552Z,3.09
2023-03-27T02:41:15.466Z,2.98
2023-03-27T02:43:47.900Z,2.88
2023-03-27T02:46:38.549Z,2.76
2023-03-27T02:49:14.476Z,2.67
2023-03-27T02:51:46.366Z,2.53
2023-03-27T02:54:17.348Z,2.43
2023-03-27T02:56:52.269Z,2.29
2023-03-27T02:59:25.469Z,2.17
2023-03-27T03:01:53.007Z,2.09
2023-03-27T03:04:35.074Z,2.07
2023-03-27T03:07:06.404Z,2.07
2023-03-27T03:09:33.131Z,2.07
2023-03-27T03:11:59.669Z,2.08
2023-03-27T03:14:31.612Z,2.14
2023-03-27T03:16:58.080Z,2.17
2023-03-27T03:19:24.953Z,2.20
2023-03-27T03:21:51.522Z,2.19
2023-03-27T03:24:19.083Z,2.19
2023-03-27T03:26:50.097Z,2.14
2023-03-27T03:29:17.987Z,2.10
2023-03-27T03:31:44.810Z,2.10
2023-03-27T03:34:13.548Z,2.05
2023-03-27T03:36:42.002Z,1.97
2023-03-27T03:39:09.203Z,1.93
2023-03-27T03:41:35.896Z,1.87
2023-03-27T03:44:02.320Z,1.86
2023-03-27T03:46:28.959Z,1.80
2023-03-27T03:48:56.512Z,1.75
2023-03-27T03:51:24.247Z,1.67
2023-03-27T03:53:50.806Z,1.59
2023-03-27T03:56:18.392Z,1.60
2023-03-27T03:58:44.808Z,1.54
2023-03-27T04:01:11.442Z,1.49
2023-03-27T04:03:39.042Z,1.49
2023-03-27T04:06:07.445Z,1.52
2023-03-27T04:08:34.935Z,1.57
2023-03-27T04:11:01.439Z,1.58
2023-03-27T04:13:27.885Z,1.64
2023-03-27T04:15:55.438Z,1.64
2023-03-27T04:18:24.725Z,1.66
2023-03-27T04:20:51.297Z,1.67
2023-03-27T04:23:20.686Z,1.69
2023-03-27T04:25:47.391Z,1.72
2023-03-27T04:28:17.773Z,1.69
2023-03-27T04:30:44.957Z,1.65
2023-03-27T04:33:18.469Z,1.62
2023-03-27T04:35:46.082Z,1.58
2023-03-27T04:38:37.102Z,1.59
2023-03-27T04:41:04.659Z,1.63
2023-03-27T04:43:31.475Z,1.64
2023-03-27T04:45:58.035Z,1.64
2023-03-27T04:48:24.557Z,1.67
2023-03-27T04:50:51.086Z,1.76
2023-03-27T04:53:20.427Z,1.81
2023-03-27T04:55:51.015Z,1.93
2023-03-27T04:58:18.369Z,1.96
2023-03-27T05:00:50.315Z,1.97
2023-03-27T05:03:20.376Z,1.94
2023-03-27T05:05:49.698Z,1.95
2023-03-27T05:08:16.970Z,1.94
2023-03-27T05:10:44.335Z,1.92
2023-03-27T05:13:10.810Z,1.88
2023-03-27T05:15:39.045Z,1.86
2023-03-27T05:18:07.166Z,1.80
2023-03-27T05:20:34.573Z,1.81
2023-03-27T05:23:00.972Z,1.81
2023-03-27T05:25:28.963Z,1.80
2023-03-27T05:27:55.509Z,1.81
2023-03-27T05:30:23.925Z,1.82
2023-03-27T05:32:52.431Z,1.82
2023-03-27T05:35:22.341Z,1.83
2023-03-27T05:37:50.614Z,1.82
2023-03-27T05:40:28.194Z,1.83
2023-03-27T05:42:57.630Z,1.82
2023-03-27T05:45:24.292Z,1.80
2023-03-27T05:47:56.711Z,1.81
2023-03-27T05:50:28.723Z,1.80
2023-03-27T05:52:56.649Z,1.80
2023-03-27T05:55:26.386Z,1.79
2023-03-27T05:57:54.387Z,1.78
2023-03-27T06:00:27.165Z,1.79
2023-03-27T06:02:56.376Z,1.81
2023-03-27T06:05:24.071Z,1.83
2023-03-27T06:07:51.120Z,1.85
2023-03-27T06:10:20.299Z,1.87
2023-03-27T06:12:48.969Z,1.88
2023-03-27T06:15:16.303Z,1.89
2023-03-27T06:17:43.901Z,1.91
2023-03-27T06:20:12.805Z,1.92
2023-03-27T06:22:45.807Z,1.94
2023-03-27T06:25:12.452Z,1.98
2023-03-27T06:27:41.651Z,2.00
2023-03-27T06:30:11.124Z,2.02
2023-03-27T06:32:37.624Z,2.07
2023-03-27T06:35:04.352Z,2.13
2023-03-27T06:37:36.804Z,2.19
2023-03-27T06:40:09.410Z,2.29
2023-03-27T06:42:38.869Z,2.42
2023-03-27T06:45:06.132Z,2.57
2023-03-27T06:47:36.359Z,2.69
2023-03-27T06:50:06.645Z,2.76
2023-03-27T06:52:33.170Z,2.85
2023-03-27T06:54:59.652Z,3.03
2023-03-27T06:57:26.403Z,3.17
2023-03-27T06:59:53.420Z,3.29
2023-03-27T07:02:19.838Z,3.38
2023-03-27T07:04:57.718Z,3.47
2023-03-27T07:07:30.660Z,3.54
2023-03-27T07:09:57.140Z,3.62
2023-03-27T07:12:23.575Z,3.67
2023-03-27T07:14:50.190Z,3.73
2023-03-27T07:17:16.629Z,3.80
2023-03-27T07:19:43.108Z,3.82
2023-03-27T07:22:09.500Z,3.94
2023-03-27T07:24:35.915Z,4.01
2023-03-27T07:27:02.434Z,4.09
2023-03-27T07:29:28.889Z,4.17
2023-03-27T07:31:58.772Z,4.23
2023-03-27T07:34:27.144Z,4.33
2023-03-27T07:36:53.604Z,4.36
2023-03-27T07:39:20.495Z,4.40
2023-03-27T07:41:47.022Z,4.46
2023-03-27T07:44:13.522Z,4.60
2023-03-27T07:46:40.065Z,4.70
2023-03-27T07:49:06.548Z,4.82
2023-03-27T07:51:33.038Z,4.95
2023-03-27T07:54:04.097Z,5.05
2023-03-27T07:56:33.965Z,5.16
2023-03-27T07:59:01.590Z,5.21
2023-03-27T08:01:28.186Z,5.21
2023-03-27T08:03:54.934Z,5.29
2023-03-27T08:06:21.564Z,5.37
2023-03-27T08:08:48.082Z,5.46
2023-03-27T08:11:27.247Z,5.58
2023-03-27T08:13:56.448Z,5.56
2023-03-27T08:16:29.659Z,5.55
2023-03-27T08:18:57.626Z,5.53
2023-03-27T08:21:24.167Z,5.54
2023-03-27T08:23:50.672Z,5.39
2023-03-27T08:26:18.033Z,5.44
2023-03-27T08:28:44.781Z,5.58
2023-03-27T08:31:17.170Z,5.70
2023-03-27T08:33:43.808Z,5.90
2023-03-27T08:36:11.879Z,5.98
2023-03-27T08:38:39.478Z,6.11
2023-03-27T08:41:07.661Z,6.10
2023-03-27T08:43:39.211Z,5.94
2023-03-27T08:46:10.006Z,5.92
2023-03-27T08:48:48.347Z,5.87
2023-03-27T08:51:27.903Z,5.91
2023-03-27T08:54:17.822Z,6.11
2023-03-27T08:56:45.231Z,6.16
2023-03-27T08:59:17.194Z,6.20
2023-03-27T09:02:02.166Z,6.23
2023-03-27T09:04:47.689Z,6.34
2023-03-27T09:07:29.021Z,6.54
2023-03-27T09:10:18.107Z,6.54
2023-03-27T09:13:03.240Z,6.69
2023-03-27T09:15:34.641Z,6.48
2023-03-27T09:18:11.525Z,6.29
2023-03-27T09:21:03.460Z,6.24
2023-03-27T09:23:48.360Z,6.65
2023-03-27T09:26:23.977Z,6.79
2023-03-27T09:28:57.396Z,6.08
2023-03-27T09:31:31.047Z,5.45
2023-03-27T09:34:01.488Z,4.93
2023-03-27T09:36:28.245Z,4.38
2023-03-27T09:39:02.377Z,3.79
2023-03-27T09:41:38.892Z,3.43
2023-03-27T09:44:25.841Z,3.19
2023-03-27T09:47:05.298Z,3.16
2023-03-27T09:49:33.345Z,3.19
2023-03-27T09:52:01.310Z,3.27
2023-03-27T09:54:32.019Z,3.54
2023-03-27T09:57:05.145Z,3.84
2023-03-27T09:59:38.562Z,4.06
2023-03-27T10:02:18.145Z,4.34
2023-03-27T10:05:01.486Z,4.55
2023-03-27T10:07:28.262Z,4.69
2023-03-27T10:10:17.638Z,4.98
2023-03-27T10:12:49.379Z,5.18
2023-03-27T10:15:37.004Z,5.36
2023-03-27T10:18:08.113Z,5.62
2023-03-27T10:20:34.972Z,5.92
2023-03-27T10:23:07.563Z,5.91
2023-03-27T10:25:41.972Z,6.15
2023-03-27T10:28:29.154Z,6.34
2023-03-27T10:31:01.813Z,6.54
2023-03-27T10:33:31.855Z,6.50
2023-03-27T10:35:59.700Z,6.72
2023-03-27T10:38:27.746Z,7.10
2023-03-27T10:40:56.609Z,7.32
2023-03-27T10:43:40.953Z,7.31
2023-03-27T10:46:28.297Z,6.90
2023-03-27T10:49:10.066Z,6.20
2023-03-27T10:51:51.940Z,5.65
2023-03-27T10:54:39.394Z,5.27
2023-03-27T10:57:15.527Z,5.40
2023-03-27T10:59:47.627Z,5.75
2023-03-27T11:02:34.376Z,6.05
2023-03-27T11:05:21.311Z,6.38
2023-03-27T11:08:02.771Z,6.78
2023-03-27T11:10:44.310Z,6.94
2023-03-27T11:13:20.758Z,6.62
2023-03-27T11:16:14.710Z,6.55
2023-03-27T11:18:48.940Z,6.59
2023-03-27T11:21:22.178Z,6.94
2023-03-27T11:23:57.960Z,7.08
2023-03-27T11:26:32.659Z,7.50
2023-03-27T11:29:11.134Z,7.70
2023-03-27T11:31:39.449Z,7.75
2023-03-27T11:34:28.653Z,7.50
2023-03-27T11:37:43.096Z,6.39
2023-03-27T11:40:09.647Z,5.74
2023-03-27T11:42:42.563Z,5.21
2023-03-27T11:45:17.911Z,4.98
2023-03-27T11:48:05.528Z,4.94
2023-03-27T11:50:48.245Z,5.28
2023-03-27T11:53:32.592Z,5.75
2023-03-27T11:56:29.004Z,6.08
2023-03-27T11:58:58.030Z,6.47
2023-03-27T12:01:30.692Z,6.78
2023-03-27T12:04:05.414Z,6.79
2023-03-27T12:07:04.251Z,7.07
2023-03-27T12:09:51.153Z,7.18
2023-03-27T12:12:32.940Z,7.25
2023-03-27T12:15:39.447Z,7.43
2023-03-27T12:18:35.859Z,7.77
2023-03-27T12:21:14.846Z,8.05
2023-03-27T12:23:56.095Z,7.74
2023-03-27T12:26:46.639Z,7.03
2023-03-27T12:29:31.990Z,6.82
2023-03-27T12:32:10.644Z,6.69
2023-03-27T12:34:57.180Z,6.71
2023-03-27T12:38:07.610Z,6.73
2023-03-27T12:40:47.772Z,6.61
2023-03-27T12:43:39.883Z,6.54
2023-03-27T12:46:13.748Z,6.45
2023-03-27T12:49:06.511Z,6.61
2023-03-27T12:51:38.935Z,6.64
2023-03-27T12:54:35.561Z,6.91
2023-03-27T12:57:08.290Z,6.89
2023-03-27T12:59:49.439Z,7.03
2023-03-27T13:02:34.572Z,7.34
2023-03-27T13:05:30.471Z,7.48
2023-03-27T13:08:22.778Z,7.47
2023-03-27T13:11:01.414Z,7.42
2023-03-27T13:13:55.811Z,7.78
2023-03-27T13:16:27.326Z,7.93
2023-03-27T13:19:16.749Z,7.86
2023-03-27T13:22:18.857Z,8.13
2023-03-27T13:24:51.286Z,8.48
2023-03-27T13:27:35.259Z,8.42
2023-03-27T13:30:01.773Z,8.29
2023-03-27T13:32:38.828Z,8.00
2023-03-27T13:35:05.369Z,7.48
2023-03-27T13:37:36.437Z,7.53
2023-03-27T13:40:38.608Z,7.33
2023-03-27T13:43:25.999Z,6.91
2023-03-27T13:45:55.324Z,6.57
2023-03-27T13:48:42.960Z,6.49
2023-03-27T13:51:44.398Z,6.49
2023-03-27T13:54:48.505Z,6.62
2023-03-27T13:57:36.080Z,7.05
2023-03-27T14:00:14.233Z,7.48
2023-03-27T14:03:11.982Z,7.86
2023-03-27T14:06:22.879Z,8.33
2023-03-27T14:09:12.304Z,8.81
2023-03-27T14:11:47.827Z,8.86
2023-03-27T14:14:32.600Z,8.77
2023-03-27T14:17:01.938Z,8.55
2023-03-27T14:20:07.932Z,8.43
2023-03-27T14:22:45.406Z,8.83
2023-03-27T14:25:19.759Z,9.30
2023-03-27T14:27:53.988Z,9.71
2023-03-27T14:30:27.576Z,9.94
2023-03-27T14:32:56.076Z,9.94
2023-03-27T14:35:38.201Z,9.60
2023-03-27T14:38:14.590Z,9.27
2023-03-27T14:40:52.211Z,8.74
2023-03-27T14:43:21.134Z,8.44
2023-03-27T14:45:51.408Z,8.59
2023-03-27T14:48:42.947Z,8.85
2023-03-27T14:51:14.251Z,9.10
2023-03-27T14:53:44.228Z,9.26
2023-03-27T14:56:36.924Z,9.20
2023-03-27T14:59:07.915Z,8.95
2023-03-27T15:01:35.165Z,8.90
2023-03-27T15:04:02.737Z,8.94
2023-03-27T15:06:29.411Z,8.93
2023-03-27T15:08:59.678Z,8.91
2023-03-27T15:11:39.911Z,8.94
2023-03-27T15:14:14.375Z,8.92
2023-03-27T15:16:41.868Z,8.74
2023-03-27T15:19:25.667Z,8.62
2023-03-27T15:22:07.416Z,8.47
2023-03-27T15:25:12.358Z,8.47
2023-03-27T15:27:42.479Z,8.39
2023-03-27T15:30:33.589Z,8.23
2023-03-27T15:33:02.213Z,8.24
2023-03-27T15:35:36.242Z,8.34
2023-03-27T15:38:05.321Z,8.26
2023-03-27T15:40:37.479Z,8.26
2023-03-27T15:43:27.325Z,8.34
2023-03-27T15:45:56.824Z,8.34
2023-03-27T15:48:40.693Z,8.49
2023-03-27T15:51:11.133Z,8.63
2023-03-27T15:53:43.203Z,8.64
2023-03-27T15:56:24.900Z,8.57
2023-03-27T15:59:00.558Z,8.63
2023-03-27T16:01:53.829Z,8.67
2023-03-27T16:04:27.090Z,8.66
2023-03-27T16:07:05.248Z,8.79
2023-03-27T16:10:09.154Z,8.86
2023-03-27T16:12:47.684Z,8.78
2023-03-27T16:15:37.909Z,8.88
2023-03-27T16:18:18.668Z,8.50
2023-03-27T16:20:45.552Z,7.94
2023-03-27T16:23:12.078Z,7.72
2023-03-27T16:25:39.052Z,7.62
2023-03-27T16:28:07.792Z,7.66
2023-03-27T16:30:38.743Z,7.73
2023-03-27T16:33:15.759Z,7.71
2023-03-27T16:35:44.212Z,7.78
2023-03-27T16:38:11.447Z,7.82
2023-03-27T16:40:37.903Z,7.97
2023-03-27T16:43:04.359Z,8.15
2023-03-27T16:45:31.221Z,8.83
2023-03-27T16:47:57.742Z,9.67
2023-03-27T16:50:26.753Z,9.92
2023-03-27T16:52:53.498Z,9.55
2023-03-27T16:55:19.994Z,8.75
2023-03-27T16:57:46.746Z,8.57
2023-03-27T17:00:15.566Z,8.23
2023-03-27T17:02:44.404Z,7.77
2023-03-27T17:05:11.365Z,7.45
2023-03-27T17:07:38.181Z,7.20
2023-03-27T17:10:05.235Z,7.01
2023-03-27T17:12:32.319Z,6.83
2023-03-27T17:14:58.912Z,6.70
2023-03-27T17:17:27.536Z,6.56
2023-03-27T17:19:54.272Z,6.42
2023-03-27T17:22:20.755Z,6.29
2023-03-27T17:24:56.040Z,6.11
2023-03-27T17:27:25.346Z,6.06
2023-03-27T17:29:51.796Z,5.96
2023-03-27T17:32:18.390Z,5.94
2023-03-27T17:34:44.937Z,5.91
2023-03-27T17:37:12.461Z,5.96
2023-03-27T17:39:39.101Z,5.94
2023-03-27T17:42:06.512Z,5.91
2023-03-27T17:44:33.048Z,5.88
2023-03-27T17:47:00.294Z,5.83
2023-03-27T17:49:27.816Z,5.79
2023-03-27T17:51:54.397Z,5.74
2023-03-27T17:54:20.843Z,5.70
2023-03-27T17:56:47.284Z,5.63
2023-03-27T17:59:13.802Z,5.63
2023-03-27T18:01:40.377Z,5.64
2023-03-27T18:04:07.052Z,5.66
2023-03-27T18:06:33.996Z,5.67
2023-03-27T18:09:00.478Z,5.66
2023-03-27T18:11:29.127Z,5.60
2023-03-27T18:13:55.751Z,5.52
2023-03-27T18:16:23.089Z,5.43
2023-03-27T18:18:51.049Z,5.39
2023-03-27T18:21:17.470Z,5.27
2023-03-27T18:23:46.342Z,5.19
2023-03-27T18:26:14.009Z,5.10
2023-03-27T18:28:40.578Z,5.06
2023-03-27T18:31:11.800Z,5.00
2023-03-27T18:33:38.715Z,4.94
2023-03-27T18:36:10.545Z,4.87
2023-03-27T18:38:41.909Z,4.82
2023-03-27T18:41:09.363Z,4.75
2023-03-27T18:43:36.432Z,4.70
2023-03-27T18:46:07.225Z,4.67
2023-03-27T18:48:34.602Z,4.64
2023-03-27T18:51:05.716Z,4.59
2023-03-27T18:53:32.381Z,4.55
2023-03-27T18:55:59.859Z,4.48
2023-03-27T18:58:28.007Z,4.46
2023-03-27T19:00:58.117Z,4.43
2023-03-27T19:03:26.507Z,4.40
2023-03-27T19:05:53.127Z,4.38
2023-03-27T19:08:21.761Z,4.36
2023-03-27T19:10:48.539Z,4.30
2023-03-27T19:13:15.939Z,4.29
2023-03-27T19:15:42.628Z,4.23
2023-03-27T19:18:09.323Z,4.22
2023-03-27T19:20:36.152Z,4.17
2023-03-27T19:23:02.937Z,4.13
2023-03-27T19:25:29.494Z,4.08
2023-03-27T19:27:56.097Z,4.04
2023-03-27T19:30:22.725Z,4.02
2023-03-27T19:32:50.418Z,3.98
2023-03-27T19:35:17.313Z,3.92
2023-03-27T19:37:43.753Z,3.89
2023-03-27T19:40:10.555Z,3.84
2023-03-27T19:42:37.073Z,3.79
2023-03-27T19:45:04.056Z,3.79
2023-03-27T19:47:30.793Z,3.75
2023-03-27T19:49:57.294Z,3.71
2023-03-27T19:52:23.766Z,3.70
2023-03-27T19:54:50.402Z,3.66
2023-03-27T19:57:16.867Z,3.62
2023-03-27T19:59:43.370Z,3.59
2023-03-27T20:02:12.706Z,3.57
2023-03-27T20:04:39.531Z,3.53
2023-03-27T20:07:07.536Z,3.50
2023-03-27T20:09:34.371Z,3.50
2023-03-27T20:12:01.344Z,3.49
2023-03-27T20:14:28.088Z,3.47
2023-03-27T20:16:54.800Z,3.46
2023-03-27T20:19:22.762Z,3.44
2023-03-27T20:21:49.180Z,3.42
2023-03-27T20:24:17.483Z,3.41
2023-03-27T20:26:48.284Z,3.38
2023-03-27T20:29:16.459Z,3.37
2023-03-27T20:31:43.083Z,3.36
2023-03-27T20:34:10.225Z,3.34
2023-03-27T20:36:39.148Z,3.30
2023-03-27T20:39:07.817Z,3.25
2023-03-27T20:41:38.685Z,3.23
2023-03-27T20:44:14.750Z,3.16
2023-03-27T20:46:52.023Z,3.09
2023-03-27T20:49:40.142Z,3.04
2023-03-27T20:52:09.657Z,2.98
2023-03-27T20:54:36.544Z,2.91
2023-03-27T20:57:03.169Z,2.85
2023-03-27T20:59:30.709Z,2.77
2023-03-27T21:01:59.108Z,2.72
2023-03-27T21:04:27.994Z,2.63
2023-03-27T21:06:55.308Z,2.54
2023-03-27T21:09:23.374Z,2.52
2023-03-27T21:11:49.865Z,2.50
2023-03-27T21:14:16.817Z,2.50
2023-03-27T21:16:43.727Z,2.49
2023-03-27T21:19:11.619Z,2.47
2023-03-27T21:21:38.666Z,2.42
2023-03-27T21:24:05.660Z,2.41
2023-03-27T21:26:32.154Z,2.40
2023-03-27T21:28:58.646Z,2.35
2023-03-27T21:31:25.138Z,2.32
2023-03-27T21:33:51.600Z,2.26
2023-03-27T21:36:18.290Z,2.23
2023-03-27T21:38:44.840Z,2.22
2023-03-27T21:41:14.253Z,2.19
2023-03-27T21:43:41.030Z,2.19
2023-03-27T21:46:07.694Z,2.11
2023-03-27T21:48:34.288Z,2.04
2023-03-27T21:51:02.177Z,2.02
2023-03-27T21:53:29.306Z,1.96
2023-03-27T21:55:57.263Z,1.95
2023-03-27T21:58:25.196Z,1.94
2023-03-27T22:00:52.040Z,1.94
2023-03-27T22:03:18.584Z,1.93
2023-03-27T22:05:51.599Z,1.93
2023-03-27T22:08:27.705Z,1.90
2023-03-27T22:10:58.335Z,1.87
2023-03-27T22:13:24.909Z,1.87
2023-03-27T22:15:51.739Z,1.83
2023-03-27T22:18:18.342Z,1.81
2023-03-27T22:20:44.778Z,1.78
2023-03-27T22:23:11.230Z,1.74
2023-03-27T22:25:37.696Z,1.76
2023-03-27T22:28:04.228Z,1.74
2023-03-27T22:30:30.764Z,1.70
2023-03-27T22:32:57.321Z,1.66
2023-03-27T22:35:23.925Z,1.65
2023-03-27T22:37:50.404Z,1.64
2023-03-27T22:40:16.908Z,1.60
2023-03-27T22:42:43.422Z,1.58
2023-03-27T22:45:10.340Z,1.59
2023-03-27T22:47:37.012Z,1.57
2023-03-27T22:50:04.883Z,1.56
2023-03-27T22:52:31.335Z,1.57
2023-03-27T22:54:57.990Z,1.59
2023-03-27T22:57:24.395Z,1.58
2023-03-27T22:59:51.037Z,1.56
2023-03-27T23:02:17.506Z,1.54
2023-03-27T23:04:44.090Z,1.53
2023-03-27T23:07:10.645Z,1.54
2023-03-27T23:09:37.126Z,1.55
2023-03-27T23:12:03.710Z,1.56
2023-03-27T23:14:30.822Z,1.54
2023-03-27T23:16:57.224Z,1.52
2023-03-27T23:19:23.619Z,1.47
2023-03-27T23:21:50.293Z,1.45
2023-03-27T23:24:16.687Z,1.39
2023-03-27T23:26:43.118Z,1.31
2023-03-27T23:29:09.522Z,1.28
2023-03-27T23:31:36.109Z,1.26
2023-03-27T23:34:02.552Z,1.21
2023-03-27T23:36:29.703Z,1.19
2023-03-27T23:38:56.482Z,1.16
2023-03-27T23:41:23.027Z,1.12
2023-03-27T23:43:49.514Z,1.11
2023-03-27T23:46:16.665Z,1.10
2023-03-27T23:48:44.200Z,1.10
2023-03-27T23:51:12.922Z,1.08
2023-03-27T23:53:39.541Z,1.07
2023-03-27T23:56:06.497Z,1.09
2023-03-27T23:58:33.158Z,1.10
